createdAt,value
2024-02-08T00:00:10.106Z,4.29
2024-02-08T00:02:37.275Z,4.29
2024-02-08T00:05:07.782Z,4.28
2024-02-08T00:07:34.579Z,4.26
2024-02-08T00:10:02.334Z,4.27
2024-02-08T00:12:29.367Z,4.27
2024-02-08T00:14:56.205Z,4.26
2024-02-08T00:17:23.226Z,4.26
2024-02-08T00:19:50.293Z,4.26
2024-02-08T00:22:21.059Z,4.27
2024-02-08T00:24:48.075Z,4.27
2024-02-08T00:27:19.030Z,4.27
2024-02-08T00:29:45.701Z,4.27
2024-02-08T00:32:12.552Z,4.28
2024-02-08T00:34:41.163Z,4.28
2024-02-08T00:37:08.253Z,4.28
2024-02-08T00:39:34.988Z,4.28
2024-02-08T00:42:01.755Z,4.27
2024-02-08T00:44:28.996Z,4.27
2024-02-08T00:46:56.149Z,4.27
2024-02-08T00:49:23.109Z,4.27
2024-02-08T00:51:49.940Z,4.25
2024-02-08T00:54:17.145Z,4.26
2024-02-08T00:56:44.043Z,4.25
2024-02-08T00:59:11.083Z,4.23
2024-02-08T01:01:41.880Z,4.23
2024-02-08T01:04:11.748Z,4.21
2024-02-08T01:06:42.385Z,4.21
2024-02-08T01:09:09.323Z,4.22
2024-02-08T01:11:36.150Z,4.22
2024-02-08T01:14:02.963Z,4.24
2024-02-08T01:16:33.958Z,4.25
2024-02-08T01:19:01.193Z,4.23
2024-02-08T01:21:32.147Z,4.24
2024-02-08T01:23:58.782Z,4.23
2024-02-08T01:26:25.506Z,4.22
2024-02-08T01:28:55.303Z,4.20
2024-02-08T01:31:22.092Z,4.21
2024-02-08T01:33:51.409Z,4.19
2024-02-08T01:36:18.011Z,4.18
2024-02-08T01:38:45.678Z,4.18
2024-02-08T01:41:12.441Z,4.17
2024-02-08T01:43:39.409Z,4.16
2024-02-08T01:46:09.422Z,4.16
2024-02-08T01:48:37.547Z,4.15
2024-02-08T01:51:05.757Z,4.16
2024-02-08T01:53:33.193Z,4.16
2024-02-08T01:56:04.352Z,4.15
2024-02-08T01:58:31.839Z,4.13
2024-02-08T02:01:00.578Z,4.11
2024-02-08T02:03:27.611Z,4.09
2024-02-08T02:05:54.519Z,4.08
2024-02-08T02:08:22.802Z,4.07
2024-02-08T02:10:53.993Z,4.07
2024-02-08T02:13:21.012Z,4.06
2024-02-08T02:15:48.052Z,4.03
2024-02-08T02:18:16.918Z,4.02
2024-02-08T02:20:43.567Z,4.00
2024-02-08T02:23:10.931Z,3.98
2024-02-08T02:25:39.564Z,3.97
2024-02-08T02:28:09.176Z,3.96
2024-02-08T02:30:36.784Z,3.95
2024-02-08T02:33:06.996Z,3.95
2024-02-08T02:35:34.065Z,3.94
2024-02-08T02:38:03.128Z,3.92
2024-02-08T02:40:30.985Z,3.91
2024-02-08T02:42:58.271Z,3.89
2024-02-08T02:45:30.825Z,3.87
2024-02-08T02:47:58.950Z,3.86
2024-02-08T02:50:25.775Z,3.85
2024-02-08T02:52:52.695Z,3.83
2024-02-08T02:55:19.966Z,3.82
2024-02-08T02:57:47.015Z,3.83
2024-02-08T03:00:22.967Z,3.83
2024-02-08T03:02:52.870Z,3.81
2024-02-08T03:05:21.780Z,3.79
2024-02-08T03:07:49.300Z,3.75
2024-02-08T03:10:20.241Z,3.71
2024-02-08T03:12:47.789Z,3.69
2024-02-08T03:15:14.592Z,3.67
2024-02-08T03:17:41.458Z,3.66
2024-02-08T03:22:47.154Z,3.69
2024-02-08T03:25:16.632Z,3.71
2024-02-08T03:27:43.739Z,3.68
2024-02-08T03:30:20.112Z,3.67
2024-02-08T03:32:48.373Z,3.64
2024-02-08T03:35:15.349Z,3.66
2024-02-08T03:37:44.709Z,3.66
2024-02-08T03:40:11.899Z,3.64
2024-02-08T03:42:38.711Z,3.60
2024-02-08T03:45:07.662Z,3.58
2024-02-08T03:47:34.435Z,3.54
2024-02-08T03:50:01.264Z,3.54
2024-02-08T03:52:30.986Z,3.54
2024-02-08T03:54:57.903Z,3.51
2024-02-08T03:57:24.758Z,3.50
2024-02-08T03:59:53.345Z,3.51
2024-02-08T04:02:22.503Z,3.47
2024-02-08T04:05:00.033Z,3.42
2024-02-08T04:07:45.438Z,3.37
2024-02-08T04:10:51.490Z,3.32
2024-02-08T04:13:39.776Z,3.29
2024-02-08T04:16:25.746Z,3.27
2024-02-08T04:19:11.696Z,3.24
2024-02-08T04:21:57.432Z,3.20
2024-02-08T04:24:43.212Z,3.17
2024-02-08T04:27:28.778Z,3.17
2024-02-08T04:30:14.463Z,3.14
2024-02-08T04:33:00.017Z,3.10
2024-02-08T04:35:45.528Z,3.05
2024-02-08T04:38:31.003Z,2.98
2024-02-08T04:41:16.563Z,2.89
2024-02-08T04:44:02.272Z,2.82
2024-02-08T04:46:47.783Z,2.77
2024-02-08T04:49:33.295Z,2.74
2024-02-08T04:52:18.750Z,2.67
2024-02-08T04:54:45.508Z,2.60
2024-02-08T04:57:12.223Z,2.54
2024-02-08T04:59:43.168Z,2.49
2024-02-08T05:02:10.145Z,2.43
2024-02-08T05:04:37.157Z,2.39
2024-02-08T05:07:04.804Z,2.34
2024-02-08T05:09:32.129Z,2.29
2024-02-08T05:12:00.396Z,2.25
2024-02-08T05:14:27.488Z,2.22
2024-02-08T05:16:57.101Z,2.20
2024-02-08T05:19:26.878Z,2.16
2024-02-08T05:21:55.218Z,2.12
2024-02-08T05:24:21.943Z,2.12
2024-02-08T05:26:48.887Z,2.12
2024-02-08T05:29:20.103Z,2.11
2024-02-08T05:31:48.102Z,2.11
2024-02-08T05:34:18.285Z,2.11
2024-02-08T05:36:46.106Z,2.11
2024-02-08T05:39:24.585Z,2.13
2024-02-08T05:41:54.190Z,2.17
2024-02-08T05:44:21.448Z,2.20
2024-02-08T05:46:48.718Z,2.23
2024-02-08T05:49:16.591Z,2.26
2024-02-08T05:51:52.736Z,2.29
2024-02-08T05:54:32.109Z,2.33
2024-02-08T05:57:03.845Z,2.38
2024-02-08T05:59:32.241Z,2.42
2024-02-08T06:02:01.508Z,2.45
2024-02-08T06:04:35.245Z,2.44
2024-02-08T06:07:13.089Z,2.46
2024-02-08T06:09:49.375Z,2.49
2024-02-08T06:12:29.023Z,2.50
2024-02-08T06:15:15.060Z,2.53
2024-02-08T06:17:46.227Z,2.55
2024-02-08T06:20:15.374Z,2.57
2024-02-08T06:22:43.962Z,2.60
2024-02-08T06:25:33.094Z,2.61
2024-02-08T06:28:03.363Z,2.60
2024-02-08T06:30:32.251Z,2.62
2024-02-08T06:33:25.963Z,2.63
2024-02-08T06:35:57.575Z,2.65
2024-02-08T06:38:45.069Z,2.68
2024-02-08T06:41:24.618Z,2.75
2024-02-08T06:43:59.093Z,2.80
2024-02-08T06:46:55.037Z,2.84
2024-02-08T06:49:40.670Z,2.87
2024-02-08T06:52:26.076Z,2.91
2024-02-08T06:55:11.685Z,2.93
2024-02-08T06:57:57.351Z,2.91
2024-02-08T07:00:43.304Z,2.84
2024-02-08T07:03:28.988Z,2.82
2024-02-08T07:06:15.399Z,2.80
2024-02-08T07:09:00.865Z,2.85
2024-02-08T07:11:46.643Z,2.97
2024-02-08T07:14:34.264Z,3.08
2024-02-08T07:17:19.751Z,3.11
2024-02-08T07:20:05.684Z,3.12
2024-02-08T07:22:51.088Z,3.17
2024-02-08T07:25:37.050Z,3.23
2024-02-08T07:28:24.049Z,3.24
2024-02-08T07:31:09.673Z,3.16
2024-02-08T07:33:55.154Z,3.08
2024-02-08T07:36:41.287Z,3.01
2024-02-08T07:39:26.488Z,2.92
2024-02-08T07:41:56.378Z,2.85
2024-02-08T07:44:32.595Z,2.78
2024-02-08T07:47:04.626Z,2.72
2024-02-08T07:49:44.998Z,2.69
2024-02-08T07:52:20.060Z,2.61
2024-02-08T07:54:48.333Z,2.52
2024-02-08T07:57:15.263Z,2.48
2024-02-08T07:59:43.830Z,2.48
2024-02-08T08:02:14.365Z,2.50
2024-02-08T08:04:59.294Z,2.52
2024-02-08T08:07:26.343Z,2.53
2024-02-08T08:10:00.540Z,2.54
2024-02-08T08:12:29.290Z,2.53
2024-02-08T08:15:02.161Z,2.54
2024-02-08T08:17:29.625Z,2.56
2024-02-08T08:19:59.499Z,2.55
2024-02-08T08:22:26.552Z,2.54
2024-02-08T08:25:12.520Z,2.52
2024-02-08T08:27:51.801Z,2.51
2024-02-08T08:30:31.258Z,2.53
2024-02-08T08:33:12.548Z,2.58
2024-02-08T08:35:48.629Z,2.64
2024-02-08T08:38:18.415Z,2.68
2024-02-08T08:41:00.989Z,2.73
2024-02-08T08:43:27.990Z,2.78
2024-02-08T08:46:00.301Z,2.83
2024-02-08T08:48:30.970Z,2.90
2024-02-08T08:50:58.267Z,3.00
2024-02-08T08:53:29.012Z,3.12
2024-02-08T08:55:57.020Z,3.21
2024-02-08T08:58:28.463Z,3.29
2024-02-08T09:01:14.372Z,3.32
2024-02-08T09:03:45.606Z,3.38
2024-02-08T09:06:17.791Z,3.44
2024-02-08T09:08:55.794Z,3.46
2024-02-08T09:11:25.634Z,3.43
2024-02-08T09:13:55.831Z,3.43
2024-02-08T09:16:23.085Z,3.41
2024-02-08T09:18:59.455Z,3.43
2024-02-08T09:21:33.060Z,3.49
2024-02-08T09:24:05.505Z,3.58
2024-02-08T09:27:01.756Z,3.64
2024-02-08T09:29:39.493Z,3.69
2024-02-08T09:32:19.704Z,3.71
2024-02-08T09:34:48.844Z,3.69
2024-02-08T09:37:16.189Z,3.64
2024-02-08T09:40:15.605Z,3.62
2024-02-08T09:42:55.335Z,3.63
2024-02-08T09:45:36.984Z,3.65
2024-02-08T09:48:11.896Z,3.68
2024-02-08T09:50:48.386Z,3.69
2024-02-08T09:53:18.915Z,3.69
2024-02-08T09:55:46.157Z,3.71
2024-02-08T09:58:14.013Z,3.74
2024-02-08T10:00:58.456Z,3.73
2024-02-08T10:03:35.724Z,3.73
2024-02-08T10:06:24.631Z,3.73
2024-02-08T10:08:54.543Z,3.70
2024-02-08T10:11:25.302Z,3.69
2024-02-08T10:14:03.504Z,3.69
2024-02-08T10:16:42.727Z,3.67
2024-02-08T10:19:28.037Z,3.67
2024-02-08T10:21:59.115Z,3.73
2024-02-08T10:24:44.885Z,3.78
2024-02-08T10:27:21.003Z,3.83
2024-02-08T10:29:57.129Z,3.86
2024-02-08T10:32:28.298Z,3.85
2024-02-08T10:35:14.757Z,3.86
2024-02-08T10:37:48.507Z,3.88
2024-02-08T10:40:31.369Z,3.90
2024-02-08T10:43:17.504Z,3.95
2024-02-08T10:45:53.933Z,3.96
2024-02-08T10:48:23.968Z,3.96
2024-02-08T10:50:51.276Z,4.01
2024-02-08T10:53:38.493Z,4.04
2024-02-08T10:56:14.764Z,4.07
2024-02-08T10:59:11.714Z,4.16
2024-02-08T11:01:52.853Z,4.33
2024-02-08T11:04:29.408Z,4.43
2024-02-08T11:07:29.474Z,4.48
2024-02-08T11:09:59.964Z,4.47
2024-02-08T11:12:30.768Z,4.44
2024-02-08T11:14:58.938Z,4.39
2024-02-08T11:17:26.771Z,4.34
2024-02-08T11:20:00.335Z,4.32
2024-02-08T11:22:40.672Z,4.34
2024-02-08T11:25:29.314Z,4.37
2024-02-08T11:27:58.544Z,4.38
2024-02-08T11:30:36.451Z,4.42
2024-02-08T11:33:04.238Z,4.52
2024-02-08T11:35:32.495Z,4.62
2024-02-08T11:38:22.269Z,4.71
2024-02-08T11:40:49.433Z,4.76
2024-02-08T11:43:25.912Z,4.78
2024-02-08T11:45:55.259Z,4.77
2024-02-08T11:48:27.015Z,4.74
2024-02-08T11:50:59.404Z,4.68
2024-02-08T11:53:32.691Z,4.61
2024-02-08T11:56:02.802Z,4.59
2024-02-08T11:58:36.271Z,4.56
2024-02-08T12:01:04.557Z,4.54
2024-02-08T12:03:31.468Z,4.52
2024-02-08T12:05:59.755Z,4.54
2024-02-08T12:08:34.399Z,4.55
2024-02-08T12:11:07.743Z,4.55
2024-02-08T12:13:39.762Z,4.54
2024-02-08T12:16:07.004Z,4.53
2024-02-08T12:18:34.516Z,4.49
2024-02-08T12:21:02.453Z,4.52
2024-02-08T12:23:49.861Z,4.49
2024-02-08T12:27:06.057Z,4.40
2024-02-08T12:29:33.408Z,4.37
2024-02-08T12:32:00.253Z,4.35
2024-02-08T12:34:34.274Z,4.31
2024-02-08T12:37:06.816Z,4.27
2024-02-08T12:39:44.954Z,4.26
2024-02-08T12:42:14.362Z,4.27
2024-02-08T12:44:41.203Z,4.25
2024-02-08T12:47:10.508Z,4.23
2024-02-08T12:49:37.664Z,4.22
2024-02-08T12:52:10.427Z,4.21
2024-02-08T12:54:38.363Z,4.24
2024-02-08T12:57:09.333Z,4.26
2024-02-08T12:59:36.664Z,4.29
2024-02-08T13:02:09.745Z,4.33
2024-02-08T13:04:44.404Z,4.39
2024-02-08T13:07:18.303Z,4.43
2024-02-08T13:09:45.856Z,4.43
2024-02-08T13:12:16.432Z,4.43
2024-02-08T13:14:50.168Z,4.42
2024-02-08T13:17:20.832Z,4.41
2024-02-08T13:19:48.620Z,4.39
2024-02-08T13:22:15.861Z,4.33
2024-02-08T13:24:45.918Z,4.28
2024-02-08T13:27:14.053Z,4.24
2024-02-08T13:29:42.138Z,4.20
2024-02-08T13:32:08.883Z,4.15
2024-02-08T13:34:35.960Z,4.12
2024-02-08T13:37:03.021Z,4.09
2024-02-08T13:39:33.446Z,4.03
2024-02-08T13:42:00.487Z,3.95
2024-02-08T13:44:27.756Z,3.92
2024-02-08T13:46:55.040Z,3.88
2024-02-08T13:49:25.446Z,3.87
2024-02-08T13:51:53.397Z,3.85
2024-02-08T13:54:20.954Z,3.83
2024-02-08T13:56:47.798Z,3.82
2024-02-08T13:59:15.533Z,3.83
2024-02-08T14:01:45.432Z,3.83
2024-02-08T14:04:21.330Z,3.81
2024-02-08T14:06:55.975Z,3.77
2024-02-08T14:09:25.742Z,3.71
2024-02-08T14:11:56.429Z,3.64
2024-02-08T14:14:30.829Z,3.59
2024-02-08T14:16:59.522Z,3.54
2024-02-08T14:19:34.661Z,3.48
2024-02-08T14:22:07.625Z,3.40
2024-02-08T14:24:39.929Z,3.33
2024-02-08T14:27:06.757Z,3.25
2024-02-08T14:29:36.683Z,3.18
2024-02-08T14:32:21.113Z,3.12
2024-02-08T14:34:59.489Z,3.04
2024-02-08T14:37:29.170Z,2.97
2024-02-08T14:39:56.939Z,2.91
2024-02-08T14:42:28.699Z,2.86
2024-02-08T14:44:57.384Z,2.79
2024-02-08T14:47:26.095Z,2.72
2024-02-08T14:49:56.315Z,2.66
2024-02-08T14:52:35.251Z,2.62
2024-02-08T14:55:11.614Z,2.58
2024-02-08T14:57:45.994Z,2.53
2024-02-08T15:00:31.649Z,2.47
2024-02-08T15:03:19.789Z,2.44
2024-02-08T15:05:50.763Z,2.42
2024-02-08T15:08:24.718Z,2.38
2024-02-08T15:11:03.931Z,2.33
2024-02-08T15:13:39.071Z,2.29
2024-02-08T15:16:08.564Z,2.27
2024-02-08T15:18:47.901Z,2.25
2024-02-08T15:21:24.580Z,2.23
2024-02-08T15:24:12.680Z,2.22
2024-02-08T15:26:45.327Z,2.20
2024-02-08T15:29:30.824Z,2.18
2024-02-08T15:31:58.189Z,2.16
2024-02-08T15:34:43.815Z,2.12
2024-02-08T15:37:29.885Z,2.09
2024-02-08T15:39:59.305Z,2.03
2024-02-08T15:42:38.078Z,2.00
2024-02-08T15:45:11.474Z,1.97
2024-02-08T15:47:55.466Z,1.93
2024-02-08T15:50:25.641Z,1.90
2024-02-08T15:52:55.262Z,1.84
2024-02-08T15:55:26.454Z,1.84
2024-02-08T15:58:16.190Z,1.84
2024-02-08T16:01:01.970Z,1.84
2024-02-08T16:03:29.301Z,1.83
2024-02-08T16:05:56.999Z,1.83
2024-02-08T16:08:38.660Z,1.81
2024-02-08T16:11:19.535Z,1.77
2024-02-08T16:13:58.088Z,1.75
2024-02-08T16:16:25.313Z,1.71
2024-02-08T16:18:59.854Z,1.69
2024-02-08T16:21:30.672Z,1.65
2024-02-08T16:24:13.827Z,1.62
2024-02-08T16:26:45.228Z,1.60
2024-02-08T16:29:17.436Z,1.57
2024-02-08T16:31:55.503Z,1.56
2024-02-08T16:34:26.786Z,1.54
2024-02-08T16:36:53.858Z,1.54
2024-02-08T16:39:20.689Z,1.54
2024-02-08T16:41:48.654Z,1.52
2024-02-08T16:44:15.805Z,1.50
2024-02-08T16:46:52.702Z,1.47
2024-02-08T16:49:19.680Z,1.44
2024-02-08T16:51:48.571Z,1.40
2024-02-08T16:54:29.819Z,1.38
2024-02-08T16:56:57.837Z,1.39
2024-02-08T16:59:45.317Z,1.38
2024-02-08T17:02:27.046Z,1.37
2024-02-08T17:05:17.152Z,1.36
2024-02-08T17:07:44.368Z,1.33
2024-02-08T17:10:13.522Z,1.28
2024-02-08T17:12:57.489Z,1.26
2024-02-08T17:15:41.758Z,1.24
2024-02-08T17:18:17.362Z,1.23
2024-02-08T17:20:53.984Z,1.18
2024-02-08T17:23:28.456Z,1.15
2024-02-08T17:26:07.080Z,1.09
2024-02-08T17:28:50.459Z,1.04
2024-02-08T17:31:29.477Z,0.98
2024-02-08T17:33:57.424Z,0.94
2024-02-08T17:36:33.867Z,0.93
2024-02-08T17:39:00.776Z,0.95
2024-02-08T17:41:30.280Z,0.97
2024-02-08T17:44:04.398Z,1.00
2024-02-08T17:46:31.790Z,1.03
2024-02-08T17:48:59.339Z,1.06
2024-02-08T17:51:32.446Z,1.06
2024-02-08T17:54:01.403Z,1.03
2024-02-08T17:56:32.346Z,1.02
2024-02-08T17:58:59.930Z,0.99
2024-02-08T18:01:38.959Z,0.98
2024-02-08T18:04:06.121Z,0.97
2024-02-08T18:06:33.118Z,0.96
2024-02-08T18:09:00.096Z,0.95
2024-02-08T18:11:30.592Z,0.93
2024-02-08T18:13:59.956Z,0.91
2024-02-08T18:16:31.101Z,0.88
2024-02-08T18:19:07.055Z,0.86
2024-02-08T18:21:34.760Z,0.84
2024-02-08T18:24:03.605Z,0.84
2024-02-08T18:26:32.488Z,0.82
2024-02-08T18:29:05.517Z,0.80
2024-02-08T18:31:35.442Z,0.79
2024-02-08T18:34:02.509Z,0.77
2024-02-08T18:36:31.250Z,0.76
2024-02-08T18:38:59.536Z,0.78
2024-02-08T18:41:26.890Z,0.80
2024-02-08T18:43:53.933Z,0.82
2024-02-08T18:46:24.808Z,0.82
2024-02-08T18:48:56.939Z,0.80
2024-02-08T18:51:24.088Z,0.79
2024-02-08T18:53:50.989Z,0.76
2024-02-08T18:56:21.231Z,0.74
2024-02-08T18:58:52.381Z,0.68
2024-02-08T19:01:21.391Z,0.61
2024-02-08T19:03:48.640Z,0.56
2024-02-08T19:06:16.448Z,0.55
2024-02-08T19:08:44.522Z,0.53
2024-02-08T19:11:11.722Z,0.51
2024-02-08T19:13:39.847Z,0.47
2024-02-08T19:16:08.080Z,0.43
2024-02-08T19:18:44.733Z,0.40
2024-02-08T19:21:14.930Z,0.39
2024-02-08T19:23:44.951Z,0.39
2024-02-08T19:26:25.831Z,0.40
2024-02-08T19:28:52.936Z,0.42
2024-02-08T19:31:20.359Z,0.44
2024-02-08T19:33:51.922Z,0.46
2024-02-08T19:36:24.976Z,0.47
2024-02-08T19:38:55.205Z,0.47
2024-02-08T19:41:22.251Z,0.45
2024-02-08T19:43:49.336Z,0.44
2024-02-08T19:46:19.955Z,0.43
2024-02-08T19:48:53.029Z,0.41
2024-02-08T19:51:25.744Z,0.39
2024-02-08T19:53:55.626Z,0.35
2024-02-08T19:56:26.972Z,0.33
2024-02-08T19:58:54.035Z,0.31
2024-02-08T20:01:24.425Z,0.33
2024-02-08T20:03:53.218Z,0.37
2024-02-08T20:06:27.822Z,0.41
2024-02-08T20:08:57.826Z,0.44
2024-02-08T20:11:24.644Z,0.42
2024-02-08T20:13:59.764Z,0.42
2024-02-08T20:16:31.901Z,0.42
2024-02-08T20:19:00.458Z,0.43
2024-02-08T20:21:28.201Z,0.40
2024-02-08T20:23:55.691Z,0.36
2024-02-08T20:26:26.131Z,0.35
2024-02-08T20:28:56.138Z,0.35
2024-02-08T20:31:25.010Z,0.38
2024-02-08T20:33:55.172Z,0.41
2024-02-08T20:36:22.897Z,0.43
2024-02-08T20:38:54.169Z,0.43
2024-02-08T20:41:24.272Z,0.42
2024-02-08T20:43:56.251Z,0.41
2024-02-08T20:46:23.237Z,0.41
2024-02-08T20:48:55.067Z,0.42
2024-02-08T20:51:22.932Z,0.42
2024-02-08T20:53:49.778Z,0.39
2024-02-08T20:56:26.762Z,0.37
2024-02-08T20:58:55.448Z,0.35
2024-02-08T21:01:25.025Z,0.35
2024-02-08T21:03:52.811Z,0.37
2024-02-08T21:06:22.957Z,0.39
2024-02-08T21:08:50.754Z,0.41
2024-02-08T21:11:18.659Z,0.42
2024-02-08T21:13:50.072Z,0.43
2024-02-08T21:16:20.324Z,0.42
2024-02-08T21:18:47.140Z,0.43
2024-02-08T21:21:14.464Z,0.43
2024-02-08T21:23:41.517Z,0.45
2024-02-08T21:26:15.571Z,0.46
2024-02-08T21:28:47.980Z,0.47
2024-02-08T21:31:18.783Z,0.47
2024-02-08T21:33:51.164Z,0.47
2024-02-08T21:36:18.535Z,0.47
2024-02-08T21:38:49.618Z,0.50
2024-02-08T21:41:16.731Z,0.54
2024-02-08T21:43:43.802Z,0.57
2024-02-08T21:46:14.100Z,0.58
2024-02-08T21:48:42.036Z,0.58
2024-02-08T21:51:09.380Z,0.59
2024-02-08T21:53:36.319Z,0.60
2024-02-08T21:56:03.468Z,0.62
2024-02-08T21:58:31.650Z,0.64
2024-02-08T22:03:43.564Z,0.69
2024-02-08T22:06:10.559Z,0.71
2024-02-08T22:08:37.671Z,0.74
2024-02-08T22:11:08.597Z,0.78
2024-02-08T22:13:35.674Z,0.83
2024-02-08T22:16:02.647Z,0.89
2024-02-08T22:18:29.773Z,0.96
2024-02-08T22:20:56.596Z,0.98
2024-02-08T22:23:23.243Z,0.95
2024-02-08T22:25:50.656Z,0.95
2024-02-08T22:28:19.853Z,0.95
2024-02-08T22:30:46.683Z,0.90
2024-02-08T22:33:14.772Z,0.86
2024-02-08T22:35:41.640Z,0.81
2024-02-08T22:38:09.038Z,0.79
2024-02-08T22:40:36.441Z,0.80
2024-02-08T22:43:04.220Z,0.81
2024-02-08T22:45:31.104Z,0.79
2024-02-08T22:47:57.867Z,0.73
2024-02-08T22:50:24.683Z,0.70
2024-02-08T22:52:53.408Z,0.66
2024-02-08T22:55:23.335Z,0.62
2024-02-08T22:57:50.584Z,0.58
2024-02-08T23:00:40.956Z,0.55
2024-02-08T23:03:07.643Z,0.53
2024-02-08T23:05:40.068Z,0.53
2024-02-08T23:08:09.597Z,0.52
2024-02-08T23:10:36.663Z,0.50
2024-02-08T23:13:04.000Z,0.47
2024-02-08T23:15:30.803Z,0.46
2024-02-08T23:17:58.264Z,0.42
2024-02-08T23:20:25.249Z,0.40
2024-02-08T23:22:52.474Z,0.41
2024-02-08T23:25:19.402Z,0.41
2024-02-08T23:27:48.559Z,0.42
2024-02-08T23:30:15.780Z,0.37
2024-02-08T23:32:51.908Z,0.35
2024-02-08T23:35:25.125Z,0.33
2024-02-08T23:37:56.473Z,0.33
2024-02-08T23:40:27.330Z,0.33
2024-02-08T23:42:57.797Z,0.33
2024-02-08T23:45:31.754Z,0.35
2024-02-08T23:47:59.393Z,0.35
2024-02-08T23:50:26.680Z,0.35
2024-02-08T23:52:53.654Z,0.32
2024-02-08T23:55:23.994Z,0.30
2024-02-08T23:57:50.917Z,0.30
